sensor_id;sensor_type;location;lat;lon;timestamp;pressure;altitude;pressure_sealevel;temperature;humidity
53619;BME280;68717;53.040;18.488;2023-04-27T00:00:07;101300.25;;;2.27;100.00
53619;BME280;68717;53.040;18.488;2023-04-27T00:00:36;101307.22;;;2.28;100.00
53619;BME280;68717;53.040;18.488;2023-04-27T00:01:00;101306.38;;;2.27;100.00
53619;BME280;68717;53.040;18.488;2023-04-27T00:01:13;101299.34;;;2.26;100.00
53619;BME280;68717;53.040;18.488;2023-04-27T00:01:26;101303.78;;;2.26;100.00
53619;BME280;68717;53.040;18.488;2023-04-27T00:01:38;101304.66;;;2.26;100.00
53619;BME280;68717;53.040;18.488;2023-04-27T00:01:52;101303.78;;;2.26;100.00
53619;BME280;68717;53.040;18.488;2023-04-27T00:02:05;101300.25;;;2.27;100.00
53619;BME280;68717;53.040;18.488;2023-04-27T00:02:19;101299.34;;;2.26;100.00
53619;BME280;68717;53.040;18.488;2023-04-27T00:02:32;101302.94;;;2.25;100.00
53619;BME280;68717;53.040;18.488;2023-04-27T00:02:45;101310.81;;;2.27;100.00
53619;BME280;68717;53.040;18.488;2023-04-27T00:02:58;101303.78;;;2.26;100.00
53619;BME280;68717;53.040;18.488;2023-04-27T00:03:11;101302.94;;;2.25;100.00
53619;BME280;68717;53.040;18.488;2023-04-27T00:03:25;101313.47;;;2.27;100.00
53619;BME280;68717;53.040;18.488;2023-04-27T00:03:40;101301.19;;;2.24;100.00
53619;BME280;68717;53.040;18.488;2023-04-27T00:03:53;101302.09;;;2.25;100.00
53619;BME280;68717;53.040;18.488;2023-04-27T00:04:06;101302.94;;;2.25;100.00
53619;BME280;68717;53.040;18.488;2023-04-27T00:04:19;101305.53;;;2.27;100.00
53619;BME280;68717;53.040;18.488;2023-04-27T00:04:32;101302.94;;;2.25;100.00
53619;BME280;68717;53.040;18.488;2023-04-27T00:04:45;101302.00;;;2.26;100.00
53619;BME280;68717;53.040;18.488;2023-04-27T00:04:58;101305.53;;;2.27;100.00
53619;BME280;68717;53.040;18.488;2023-04-27T00:05:14;101304.66;;;2.26;100.00
53619;BME280;68717;53.040;18.488;2023-04-27T00:05:26;101302.00;;;2.26;100.00
53619;BME280;68717;53.040;18.488;2023-04-27T00:05:39;101307.22;;;2.28;100.00
53619;BME280;68717;53.040;18.488;2023-04-27T00:05:52;101310.72;;;2.28;100.00
53619;BME280;68717;53.040;18.488;2023-04-27T00:06:05;101302.75;;;2.30;100.00
53619;BME280;68717;53.040;18.488;2023-04-27T00:06:19;101299.19;;;2.31;100.00
53619;BME280;68717;53.040;18.488;2023-04-27T00:06:33;101303.53;;;2.32;100.00
53619;BME280;68717;53.040;18.488;2023-04-27T00:06:46;101304.31;;;2.34;100.00
53619;BME280;68717;53.040;18.488;2023-04-27T00:06:58;101301.69;;;2.34;100.00
53619;BME280;68717;53.040;18.488;2023-04-27T00:07:11;101299.81;;;2.36;100.00
53619;BME280;68717;53.040;18.488;2023-04-27T00:07:23;101305.13;;;2.36;100.00
53619;BME280;68717;53.040;18.488;2023-04-27T00:07:37;101302.41;;;2.37;100.00
53619;BME280;68717;53.040;18.488;2023-04-27T00:07:50;101305.91;;;2.38;100.00
53619;BME280;68717;53.040;18.488;2023-04-27T00:08:04;101303.28;;;2.38;100.00
53619;BME280;68717;53.040;18.488;2023-04-27T00:08:17;101306.72;;;2.40;100.00
53619;BME280;68717;53.040;18.488;2023-04-27T00:08:29;101305.84;;;2.39;100.00
53619;BME280;68717;53.040;18.488;2023-04-27T00:08:42;101297.84;;;2.41;100.00
53619;BME280;68717;53.040;18.488;2023-04-27T00:08:55;101298.69;;;2.41;100.00
53619;BME280;68717;53.040;18.488;2023-04-27T00:09:07;101297.78;;;2.42;100.00
53619;BME280;68717;53.040;18.488;2023-04-27T00:09:21;101296.84;;;2.43;100.00
53619;BME280;68717;53.040;18.488;2023-04-27T00:09:33;101303.00;;;2.44;100.00
53619;BME280;68717;53.040;18.488;2023-04-27T00:09:46;101299.47;;;2.43;100.00
53619;BME280;68717;53.040;18.488;2023-04-27T00:09:59;101310.94;;;2.44;100.00
53619;BME280;68717;53.040;18.488;2023-04-27T00:10:11;101300.38;;;2.44;100.00
53619;BME280;68717;53.040;18.488;2023-04-27T00:10:24;101303.88;;;2.44;100.00
53619;BME280;68717;53.040;18.488;2023-04-27T00:10:37;101297.56;;;2.47;100.00
53619;BME280;68717;53.040;18.488;2023-04-27T00:10:50;101302.00;;;2.47;100.00
53619;BME280;68717;53.040;18.488;2023-04-27T00:11:03;101304.59;;;2.48;100.00
53619;BME280;68717;53.040;18.488;2023-04-27T00:11:16;101299.31;;;2.48;100.00
53619;BME280;68717;53.040;18.488;2023-04-27T00:11:28;101299.31;;;2.48;100.00
53619;BME280;68717;53.040;18.488;2023-04-27T00:11:41;101301.00;;;2.49;100.00
53619;BME280;68717;53.040;18.488;2023-04-27T00:11:54;101300.94;;;2.51;100.00
53619;BME280;68717;53.040;18.488;2023-04-27T00:12:06;101301.81;;;2.51;100.00
53619;BME280;68717;53.040;18.488;2023-04-27T00:12:19;101299.16;;;2.51;100.00
53619;BME280;68717;53.040;18.488;2023-04-27T00:12:32;101296.47;;;2.53;100.00
53619;BME280;68717;53.040;18.488;2023-04-27T00:12:45;101300.88;;;2.52;100.00
53619;BME280;68717;53.040;18.488;2023-04-27T00:12:58;101302.59;;;2.53;100.00
53619;BME280;68717;53.040;18.488;2023-04-27T00:13:10;101304.31;;;2.54;100.00
53619;BME280;68717;53.040;18.488;2023-04-27T00:13:23;101300.75;;;2.55;100.00
53619;BME280;68717;53.040;18.488;2023-04-27T00:13:35;101302.53;;;2.55;100.00
53619;BME280;68717;53.040;18.488;2023-04-27T00:13:48;101301.53;;;2.57;100.00
53619;BME280;68717;53.040;18.488;2023-04-27T00:14:01;101298.91;;;2.57;100.00
53619;BME280;68717;53.040;18.488;2023-04-27T00:14:14;101305.91;;;2.58;100.00
53619;BME280;68717;53.040;18.488;2023-04-27T00:14:27;101295.31;;;2.58;100.00
53619;BME280;68717;53.040;18.488;2023-04-27T00:14:40;101296.16;;;2.59;100.00
53619;BME280;68717;53.040;18.488;2023-04-27T00:14:53;101298.75;;;2.60;100.00
53619;BME280;68717;53.040;18.488;2023-04-27T00:15:06;101306.69;;;2.60;100.00
53619;BME280;68717;53.040;18.488;2023-04-27T00:15:19;101304.88;;;2.61;100.00
53619;BME280;68717;53.040;18.488;2023-04-27T00:15:32;101300.47;;;2.61;100.00
53619;BME280;68717;53.040;18.488;2023-04-27T00:15:45;101307.47;;;2.62;100.00
53619;BME280;68717;53.040;18.488;2023-04-27T00:15:59;101303.91;;;2.63;100.00
53619;BME280;68717;53.040;18.488;2023-04-27T00:16:14;101293.38;;;2.62;100.00
53619;BME280;68717;53.040;18.488;2023-04-27T00:16:27;101299.53;;;2.62;100.00
53619;BME280;68717;53.040;18.488;2023-04-27T00:16:40;101304.84;;;2.62;100.00
53619;BME280;68717;53.040;18.488;2023-04-27T00:16:52;101298.69;;;2.62;100.00
53619;BME280;68717;53.040;18.488;2023-04-27T00:17:05;101305.78;;;2.61;100.00
53619;BME280;68717;53.040;18.488;2023-04-27T00:17:18;101295.19;;;2.61;100.00
53619;BME280;68717;53.040;18.488;2023-04-27T00:17:31;101294.31;;;2.61;100.00
53619;BME280;68717;53.040;18.488;2023-04-27T00:17:44;101299.59;;;2.61;100.00
53619;BME280;68717;53.040;18.488;2023-04-27T00:17:57;101306.69;;;2.60;100.00
53619;BME280;68717;53.040;18.488;2023-04-27T00:18:10;101298.75;;;2.60;100.00
53619;BME280;68717;53.040;18.488;2023-04-27T00:18:22;101305.78;;;2.61;100.00
53619;BME280;68717;53.040;18.488;2023-04-27T00:18:36;101304.88;;;2.61;100.00
53619;BME280;68717;53.040;18.488;2023-04-27T00:18:49;101305.78;;;2.61;100.00
53619;BME280;68717;53.040;18.488;2023-04-27T00:19:03;101303.19;;;2.60;100.00
53619;BME280;68717;53.040;18.488;2023-04-27T00:19:16;101308.47;;;2.60;100.00
53619;BME280;68717;53.040;18.488;2023-04-27T00:19:28;101300.59;;;2.58;100.00
53619;BME280;68717;53.040;18.488;2023-04-27T00:19:41;101300.59;;;2.58;100.00
53619;BME280;68717;53.040;18.488;2023-04-27T00:19:54;101304.09;;;2.59;100.00
53619;BME280;68717;53.040;18.488;2023-04-27T00:20:07;101306.75;;;2.59;100.00
53619;BME280;68717;53.040;18.488;2023-04-27T00:20:23;101306.75;;;2.59;100.00
53619;BME280;68717;53.040;18.488;2023-04-27T00:20:36;101300.59;;;2.58;100.00
53619;BME280;68717;53.040;18.488;2023-04-27T00:20:49;101305.91;;;2.58;100.00
53619;BME280;68717;53.040;18.488;2023-04-27T00:21:02;101305.09;;;2.56;100.00
53619;BME280;68717;53.040;18.488;2023-04-27T00:21:15;101306.91;;;2.56;100.00
53619;BME280;68717;53.040;18.488;2023-04-27T00:21:27;101299.09;;;2.53;100.00
53619;BME280;68717;53.040;18.488;2023-04-27T00:21:40;101306.16;;;2.52;100.00
53619;BME280;68717;53.040;18.488;2023-04-27T00:21:53;101301.81;;;2.51;100.00
53619;BME280;68717;53.040;18.488;2023-04-27T00:22:06;101301.81;;;2.51;100.00
53619;BME280;68717;53.040;18.488;2023-04-27T00:22:18;101298.31;;;2.51;100.00
53619;BME280;68717;53.040;18.488;2023-04-27T00:22:31;101301.88;;;2.50;100.00
53619;BME280;68717;53.040;18.488;2023-04-27T00:22:44;101308.00;;;2.50;100.00
53619;BME280;68717;53.040;18.488;2023-04-27T00:22:56;101304.50;;;2.50;100.00
53619;BME280;68717;53.040;18.488;2023-04-27T00:23:10;101305.44;;;2.49;100.00
53619;BME280;68717;53.040;18.488;2023-04-27T00:23:23;101305.44;;;2.49;100.00
53619;BME280;68717;53.040;18.488;2023-04-27T00:23:35;101307.25;;;2.48;100.00
53619;BME280;68717;53.040;18.488;2023-04-27T00:23:48;101304.59;;;2.48;100.00
53619;BME280;68717;53.040;18.488;2023-04-27T00:24:00;101304.59;;;2.48;100.00
53619;BME280;68717;53.040;18.488;2023-04-27T00:24:13;101300.16;;;2.49;100.00
53619;BME280;68717;53.040;18.488;2023-04-27T00:24:26;101303.72;;;2.48;100.00
53619;BME280;68717;53.040;18.488;2023-04-27T00:24:39;101302.88;;;2.47;100.00
53619;BME280;68717;53.040;18.488;2023-04-27T00:24:53;101312.59;;;2.47;100.00
53619;BME280;68717;53.040;18.488;2023-04-27T00:25:06;101303.00;;;2.44;100.00
53619;BME280;68717;53.040;18.488;2023-04-27T00:25:18;101305.72;;;2.42;100.00
53619;BME280;68717;53.040;18.488;2023-04-27T00:25:31;101302.28;;;2.40;100.00
53619;BME280;68717;53.040;18.488;2023-04-27T00:25:44;101311.16;;;2.39;100.00
53619;BME280;68717;53.040;18.488;2023-04-27T00:25:57;101304.97;;;2.39;100.00
53619;BME280;68717;53.040;18.488;2023-04-27T00:26:10;101304.97;;;2.39;100.00
53619;BME280;68717;53.040;18.488;2023-04-27T00:26:22;101299.69;;;2.39;100.00
53619;BME280;68717;53.040;18.488;2023-04-27T00:26:35;101309.34;;;2.40;100.00
53619;BME280;68717;53.040;18.488;2023-04-27T00:26:48;101309.34;;;2.40;100.00
53619;BME280;68717;53.040;18.488;2023-04-27T00:27:00;101303.22;;;2.39;100.00
53619;BME280;68717;53.040;18.488;2023-04-27T00:27:14;101310.22;;;2.40;100.00
53619;BME280;68717;53.040;18.488;2023-04-27T00:27:27;101306.72;;;2.40;100.00
53619;BME280;68717;53.040;18.488;2023-04-27T00:27:40;101307.56;;;2.40;100.00
53619;BME280;68717;53.040;18.488;2023-04-27T00:27:53;101310.22;;;2.40;100.00
53619;BME280;68717;53.040;18.488;2023-04-27T00:28:05;101301.41;;;2.40;100.00
53619;BME280;68717;53.040;18.488;2023-04-27T00:28:18;101309.41;;;2.38;100.00
53619;BME280;68717;53.040;18.488;2023-04-27T00:28:31;101308.56;;;2.38;100.00
53619;BME280;68717;53.040;18.488;2023-04-27T00:28:43;101305.91;;;2.38;100.00
53619;BME280;68717;53.040;18.488;2023-04-27T00:28:56;101305.91;;;2.38;100.00
53619;BME280;68717;53.040;18.488;2023-04-27T00:29:09;101305.97;;;2.36;100.00
53619;BME280;68717;53.040;18.488;2023-04-27T00:29:22;101309.56;;;2.35;100.00
53619;BME280;68717;53.040;18.488;2023-04-27T00:29:35;101310.41;;;2.36;100.00
53619;BME280;68717;53.040;18.488;2023-04-27T00:29:48;101304.28;;;2.35;100.00
53619;BME280;68717;53.040;18.488;2023-04-27T00:30:00;101304.28;;;2.35;100.00
53619;BME280;68717;53.040;18.488;2023-04-27T00:30:13;101303.38;;;2.35;100.00
53619;BME280;68717;53.040;18.488;2023-04-27T00:30:27;101308.69;;;2.35;100.00
53619;BME280;68717;53.040;18.488;2023-04-27T00:30:39;101300.75;;;2.35;100.00
53619;BME280;68717;53.040;18.488;2023-04-27T00:30:52;101313.06;;;2.36;100.00
53619;BME280;68717;53.040;18.488;2023-04-27T00:31:06;101311.31;;;2.35;100.00
53619;BME280;68717;53.040;18.488;2023-04-27T00:31:19;101306.91;;;2.35;100.00
53619;BME280;68717;53.040;18.488;2023-04-27T00:31:32;101307.78;;;2.36;100.00
53619;BME280;68717;53.040;18.488;2023-04-27T00:31:45;101309.56;;;2.35;100.00
53619;BME280;68717;53.040;18.488;2023-04-27T00:31:58;101304.28;;;2.35;100.00
53619;BME280;68717;53.040;18.488;2023-04-27T00:32:11;101313.06;;;2.36;100.00
53619;BME280;68717;53.040;18.488;2023-04-27T00:32:24;101310.41;;;2.36;100.00
53619;BME280;68717;53.040;18.488;2023-04-27T00:32:37;101305.13;;;2.36;100.00
53619;BME280;68717;53.040;18.488;2023-04-27T00:32:49;101307.72;;;2.37;100.00
53619;BME280;68717;53.040;18.488;2023-04-27T00:33:02;101306.81;;;2.37;100.00
53619;BME280;68717;53.040;18.488;2023-04-27T00:33:15;101309.41;;;2.38;100.00
53619;BME280;68717;53.040;18.488;2023-04-27T00:33:29;101310.28;;;2.39;100.00
53619;BME280;68717;53.040;18.488;2023-04-27T00:33:43;101301.47;;;2.38;100.00
53619;BME280;68717;53.040;18.488;2023-04-27T00:33:56;101309.41;;;2.38;100.00
53619;BME280;68717;53.040;18.488;2023-04-27T00:34:08;101305.91;;;2.38;100.00
53619;BME280;68717;53.040;18.488;2023-04-27T00:34:21;101306.81;;;2.37;100.00
53619;BME280;68717;53.040;18.488;2023-04-27T00:34:33;101301.69;;;2.34;100.00
53619;BME280;68717;53.040;18.488;2023-04-27T00:34:46;101303.47;;;2.33;100.00
53619;BME280;68717;53.040;18.488;2023-04-27T00:34:59;101301.69;;;2.34;100.00
53619;BME280;68717;53.040;18.488;2023-04-27T00:35:12;101299.94;;;2.33;100.00
53619;BME280;68717;53.040;18.488;2023-04-27T00:35:24;101303.53;;;2.32;100.00
53619;BME280;68717;53.040;18.488;2023-04-27T00:35:37;101307.13;;;2.31;100.00
53619;BME280;68717;53.040;18.488;2023-04-27T00:35:50;101302.78;;;2.28;100.00
53619;BME280;68717;53.040;18.488;2023-04-27T00:36:03;101303.72;;;2.27;100.00
53619;BME280;68717;53.040;18.488;2023-04-27T00:36:16;101309.09;;;2.26;100.00
53619;BME280;68717;53.040;18.488;2023-04-27T00:36:29;101306.50;;;2.24;100.00
53619;BME280;68717;53.040;18.488;2023-04-27T00:36:41;101303.94;;;2.22;100.00
53619;BME280;68717;53.040;18.488;2023-04-27T00:36:54;101308.44;;;2.20;100.00
53619;BME280;68717;53.040;18.488;2023-04-27T00:37:06;101300.59;;;2.17;100.00
53619;BME280;68717;53.040;18.488;2023-04-27T00:37:19;101305.03;;;2.17;100.00
53619;BME280;68717;53.040;18.488;2023-04-27T00:37:32;101306.91;;;2.15;100.00
53619;BME280;68717;53.040;18.488;2023-04-27T00:37:45;101300.75;;;2.14;100.00
53619;BME280;68717;53.040;18.488;2023-04-27T00:37:59;101306.03;;;2.14;100.00
53619;BME280;68717;53.040;18.488;2023-04-27T00:38:12;101300.75;;;2.14;100.00
53619;BME280;68717;53.040;18.488;2023-04-27T00:38:24;101298.16;;;2.13;100.00
53619;BME280;68717;53.040;18.488;2023-04-27T00:38:37;101306.97;;;2.13;100.00
53619;BME280;68717;53.040;18.488;2023-04-27T00:38:50;101301.75;;;2.12;100.00
53619;BME280;68717;53.040;18.488;2023-04-27T00:39:02;101306.19;;;2.11;100.00
53619;BME280;68717;53.040;18.488;2023-04-27T00:39:15;101309.72;;;2.10;100.00
53619;BME280;68717;53.040;18.488;2023-04-27T00:39:29;101301.84;;;2.09;100.00
53619;BME280;68717;53.040;18.488;2023-04-27T00:39:42;101304.59;;;2.07;100.00
53619;BME280;68717;53.040;18.488;2023-04-27T00:39:54;101308.13;;;2.06;100.00
53619;BME280;68717;53.040;18.488;2023-04-27T00:40:08;101307.34;;;2.04;100.00
53619;BME280;68717;53.040;18.488;2023-04-27T00:40:20;101306.44;;;2.05;100.00
53619;BME280;68717;53.040;18.488;2023-04-27T00:40:33;101311.72;;;2.05;100.00
53619;BME280;68717;53.040;18.488;2023-04-27T00:40:46;101302.94;;;2.05;100.00
53619;BME280;68717;53.040;18.488;2023-04-27T00:41:00;101306.44;;;2.05;100.00
53619;BME280;68717;53.040;18.488;2023-04-27T00:41:12;101308.22;;;2.05;100.00
53619;BME280;68717;53.040;18.488;2023-04-27T00:41:25;101304.66;;;2.06;100.00
53619;BME280;68717;53.040;18.488;2023-04-27T00:41:38;101302.00;;;2.06;100.00
53619;BME280;68717;53.040;18.488;2023-04-27T00:41:50;101303.69;;;2.07;100.00
53619;BME280;68717;53.040;18.488;2023-04-27T00:42:03;101309.88;;;2.07;100.00
53619;BME280;68717;53.040;18.488;2023-04-27T00:42:16;101306.28;;;2.08;100.00
53619;BME280;68717;53.040;18.488;2023-04-27T00:42:31;101305.44;;;2.08;100.00
53619;BME280;68717;53.040;18.488;2023-04-27T00:42:43;101304.59;;;2.07;100.00
53619;BME280;68717;53.040;18.488;2023-04-27T00:42:56;101311.59;;;2.08;100.00
53619;BME280;68717;53.040;18.488;2023-04-27T00:43:09;101307.16;;;2.09;100.00
53619;BME280;68717;53.040;18.488;2023-04-27T00:43:22;101308.03;;;2.09;100.00
53619;BME280;68717;53.040;18.488;2023-04-27T00:43:41;101307.09;;;2.10;100.00
53619;BME280;68717;53.040;18.488;2023-04-27T00:43:54;101311.47;;;2.11;100.00
53619;BME280;68717;53.040;18.488;2023-04-27T00:44:07;101308.81;;;2.11;100.00
53619;BME280;68717;53.040;18.488;2023-04-27T00:44:23;101307.88;;;2.12;100.00
53619;BME280;68717;53.040;18.488;2023-04-27T00:44:36;101311.47;;;2.11;100.00
53619;BME280;68717;53.040;18.488;2023-04-27T00:44:51;101311.47;;;2.11;100.00
53619;BME280;68717;53.040;18.488;2023-04-27T00:45:04;101310.59;;;2.11;100.00
53619;BME280;68717;53.040;18.488;2023-04-27T00:45:18;101304.44;;;2.10;100.00
53619;BME280;68717;53.040;18.488;2023-04-27T00:45:30;101315.03;;;2.10;100.00
53619;BME280;68717;53.040;18.488;2023-04-27T00:45:43;101312.38;;;2.10;100.00
53619;BME280;68717;53.040;18.488;2023-04-27T00:45:56;101306.22;;;2.10;100.00
53619;BME280;68717;53.040;18.488;2023-04-27T00:46:09;101307.09;;;2.10;100.00
53619;BME280;68717;53.040;18.488;2023-04-27T00:46:22;101304.44;;;2.10;100.00
53619;BME280;68717;53.040;18.488;2023-04-27T00:46:34;101312.31;;;2.12;100.00
53619;BME280;68717;53.040;18.488;2023-04-27T00:46:48;101314.13;;;2.11;100.00
53619;BME280;68717;53.040;18.488;2023-04-27T00:47:01;101311.47;;;2.11;100.00
53619;BME280;68717;53.040;18.488;2023-04-27T00:47:14;101314.13;;;2.11;100.00
53619;BME280;68717;53.040;18.488;2023-04-27T00:47:28;101310.59;;;2.11;100.00
53619;BME280;68717;53.040;18.488;2023-04-27T00:47:41;101312.31;;;2.12;100.00
53619;BME280;68717;53.040;18.488;2023-04-27T00:47:54;101309.63;;;2.13;100.00
53619;BME280;68717;53.040;18.488;2023-04-27T00:48:07;101314.91;;;2.13;100.00
53619;BME280;68717;53.040;18.488;2023-04-27T00:48:20;101314.91;;;2.13;100.00
53619;BME280;68717;53.040;18.488;2023-04-27T00:48:33;101313.13;;;2.14;100.00
53619;BME280;68717;53.040;18.488;2023-04-27T00:48:49;101309.63;;;2.13;100.00
53619;BME280;68717;53.040;18.488;2023-04-27T00:49:02;101311.31;;;2.14;100.00
53619;BME280;68717;53.040;18.488;2023-04-27T00:49:15;101315.75;;;2.14;100.00
53619;BME280;68717;53.040;18.488;2023-04-27T00:49:28;101312.28;;;2.13;100.00
53619;BME280;68717;53.040;18.488;2023-04-27T00:49:40;101320.22;;;2.13;100.00
53619;BME280;68717;53.040;18.488;2023-04-27T00:49:53;101314.03;;;2.13;100.00
53619;BME280;68717;53.040;18.488;2023-04-27T00:50:07;101313.19;;;2.12;100.00
53619;BME280;68717;53.040;18.488;2023-04-27T00:50:26;101313.19;;;2.12;100.00
53619;BME280;68717;53.040;18.488;2023-04-27T00:50:39;101313.19;;;2.12;100.00
53619;BME280;68717;53.040;18.488;2023-04-27T00:50:52;101318.53;;;2.11;100.00
53619;BME280;68717;53.040;18.488;2023-04-27T00:51:05;101321.16;;;2.11;100.00
53619;BME280;68717;53.040;18.488;2023-04-27T00:51:18;101319.47;;;2.10;100.00
53619;BME280;68717;53.040;18.488;2023-04-27T00:51:30;101318.59;;;2.09;100.00
53619;BME280;68717;53.040;18.488;2023-04-27T00:51:43;101316.88;;;2.08;100.00
53619;BME280;68717;53.040;18.488;2023-04-27T00:51:57;101322.16;;;2.08;100.00
53619;BME280;68717;53.040;18.488;2023-04-27T00:52:09;101317.81;;;2.07;100.00
53619;BME280;68717;53.040;18.488;2023-04-27T00:52:22;101315.16;;;2.07;100.00
53619;BME280;68717;53.040;18.488;2023-04-27T00:52:35;101320.47;;;2.07;100.00
53619;BME280;68717;53.040;18.488;2023-04-27T00:52:48;101314.28;;;2.07;100.00
53619;BME280;68717;53.040;18.488;2023-04-27T00:53:01;101319.56;;;2.07;100.00
53619;BME280;68717;53.040;18.488;2023-04-27T00:53:13;101316.88;;;2.08;100.00
53619;BME280;68717;53.040;18.488;2023-04-27T00:53:27;101316.88;;;2.08;100.00
53619;BME280;68717;53.040;18.488;2023-04-27T00:53:40;101314.22;;;2.08;100.00
53619;BME280;68717;53.040;18.488;2023-04-27T00:53:53;101314.22;;;2.08;100.00
53619;BME280;68717;53.040;18.488;2023-04-27T00:54:06;101314.22;;;2.08;100.00
53619;BME280;68717;53.040;18.488;2023-04-27T00:54:19;101322.16;;;2.08;100.00
53619;BME280;68717;53.040;18.488;2023-04-27T00:54:32;101315.16;;;2.07;100.00
53619;BME280;68717;53.040;18.488;2023-04-27T00:54:49;101317.81;;;2.07;100.00
53619;BME280;68717;53.040;18.488;2023-04-27T00:55:03;101316.03;;;2.08;100.00
53619;BME280;68717;53.040;18.488;2023-04-27T00:55:16;101320.38;;;2.09;100.00
53619;BME280;68717;53.040;18.488;2023-04-27T00:55:28;101314.22;;;2.08;100.00
53619;BME280;68717;53.040;18.488;2023-04-27T00:55:41;101314.22;;;2.08;100.00
53619;BME280;68717;53.040;18.488;2023-04-27T00:55:53;101311.53;;;2.10;100.00
53619;BME280;68717;53.040;18.488;2023-04-27T00:56:09;101315.09;;;2.09;100.00
53619;BME280;68717;53.040;18.488;2023-04-27T00:56:22;101313.31;;;2.09;100.00
53619;BME280;68717;53.040;18.488;2023-04-27T00:56:35;101314.19;;;2.10;100.00
53619;BME280;68717;53.040;18.488;2023-04-27T00:56:48;101315.03;;;2.10;100.00
53619;BME280;68717;53.040;18.488;2023-04-27T00:57:01;101310.59;;;2.11;100.00
53619;BME280;68717;53.040;18.488;2023-04-27T00:57:15;101315.81;;;2.12;100.00
53619;BME280;68717;53.040;18.488;2023-04-27T00:57:28;101318.47;;;2.12;100.00
53619;BME280;68717;53.040;18.488;2023-04-27T00:57:41;101313.19;;;2.12;100.00
53619;BME280;68717;53.040;18.488;2023-04-27T00:57:54;101314.91;;;2.13;100.00
53619;BME280;68717;53.040;18.488;2023-04-27T00:58:07;101322.84;;;2.13;100.00
53619;BME280;68717;53.040;18.488;2023-04-27T00:58:20;101314.03;;;2.13;100.00
53619;BME280;68717;53.040;18.488;2023-04-27T00:58:34;101314.03;;;2.13;100.00
53619;BME280;68717;53.040;18.488;2023-04-27T00:58:46;101312.31;;;2.12;100.00
53619;BME280;68717;53.040;18.488;2023-04-27T00:58:59;101314.13;;;2.11;100.00
53619;BME280;68717;53.040;18.488;2023-04-27T00:59:12;101314.97;;;2.12;100.00
53619;BME280;68717;53.040;18.488;2023-04-27T00:59:25;101322.06;;;2.11;100.00
53619;BME280;68717;53.040;18.488;2023-04-27T00:59:38;101313.19;;;2.12;100.00
53619;BME280;68717;53.040;18.488;2023-04-27T00:59:50;101315.88;;;2.11;100.00
53619;BME280;68717;53.040;18.488;2023-04-27T01:00:05;101316.66;;;2.13;100.00
53619;BME280;68717;53.040;18.488;2023-04-27T01:00:18;101318.47;;;2.12;100.00
53619;BME280;68717;53.040;18.488;2023-04-27T01:00:31;101315.75;;;2.14;100.00
53619;BME280;68717;53.040;18.488;2023-04-27T01:00:43;101317.56;;;2.13;100.00
53619;BME280;68717;53.040;18.488;2023-04-27T01:00:57;101318.41;;;2.14;100.00
53619;BME280;68717;53.040;18.488;2023-04-27T01:01:10;101314.91;;;2.13;100.00
53619;BME280;68717;53.040;18.488;2023-04-27T01:01:23;101315.81;;;2.12;100.00
53619;BME280;68717;53.040;18.488;2023-04-27T01:01:37;101317.56;;;2.13;100.00
53619;BME280;68717;53.040;18.488;2023-04-27T01:01:50;101315.75;;;2.14;100.00
53619;BME280;68717;53.040;18.488;2023-04-27T01:02:02;101315.75;;;2.14;100.00
53619;BME280;68717;53.040;18.488;2023-04-27T01:02:16;101319.25;;;2.14;100.00
53619;BME280;68717;53.040;18.488;2023-04-27T01:02:28;101316.63;;;2.14;100.00
53619;BME280;68717;53.040;18.488;2023-04-27T01:02:41;101319.25;;;2.14;100.00
53619;BME280;68717;53.040;18.488;2023-04-27T01:02:55;101311.31;;;2.14;100.00
53619;BME280;68717;53.040;18.488;2023-04-27T01:03:08;101317.47;;;2.15;100.00
53619;BME280;68717;53.040;18.488;2023-04-27T01:03:21;101321.91;;;2.14;100.00
53619;BME280;68717;53.040;18.488;2023-04-27T01:03:34;101311.31;;;2.14;100.00
53619;BME280;68717;53.040;18.488;2023-04-27T01:03:48;101313.91;;;2.16;100.00
53619;BME280;68717;53.040;18.488;2023-04-27T01:04:01;101318.31;;;2.15;100.00
53619;BME280;68717;53.040;18.488;2023-04-27T01:04:15;101313.91;;;2.16;100.00
53619;BME280;68717;53.040;18.488;2023-04-27T01:04:29;101317.47;;;2.15;100.00
53619;BME280;68717;53.040;18.488;2023-04-27T01:04:43;101316.63;;;2.14;100.00
53619;BME280;68717;53.040;18.488;2023-04-27T01:04:56;101320.97;;;2.15;100.00
53619;BME280;68717;53.040;18.488;2023-04-27T01:05:09;101313.97;;;2.14;100.00
53619;BME280;68717;53.040;18.488;2023-04-27T01:05:23;101318.31;;;2.15;100.00
53619;BME280;68717;53.040;18.488;2023-04-27T01:05:37;101320.97;;;2.15;100.00
53619;BME280;68717;53.040;18.488;2023-04-27T01:05:50;101316.63;;;2.14;100.00
53619;BME280;68717;53.040;18.488;2023-04-27T01:06:03;101318.31;;;2.15;100.00
53619;BME280;68717;53.040;18.488;2023-04-27T01:06:17;101311.31;;;2.14;100.00
53619;BME280;68717;53.040;18.488;2023-04-27T01:06:29;101316.56;;;2.16;100.00
53619;BME280;68717;53.040;18.488;2023-04-27T01:06:43;101315.69;;;2.15;100.00
53619;BME280;68717;53.040;18.488;2023-04-27T01:06:55;101315.63;;;2.17;100.00
53619;BME280;68717;53.040;18.488;2023-04-27T01:07:09;101314.78;;;2.16;100.00
53619;BME280;68717;53.040;18.488;2023-04-27T01:07:24;101317.41;;;2.16;100.00
53619;BME280;68717;53.040;18.488;2023-04-27T01:07:37;101320.06;;;2.16;100.00
53619;BME280;68717;53.040;18.488;2023-04-27T01:07:51;101316.47;;;2.17;100.00
53619;BME280;68717;53.040;18.488;2023-04-27T01:08:04;101316.47;;;2.17;100.00